sensor_id;sensor_type;location;lat;lon;timestamp;pressure;altitude;pressure_sealevel;temperature;humidity
51526;BME280;37611;51.794;21.590;2023-04-07T06:47:35;99729.03;;;7.09;100.00
51526;BME280;37611;51.794;21.590;2023-04-07T07:30:43;99730.25;;;8.02;100.00
51526;BME280;37611;51.794;21.590;2023-04-07T07:35:25;99731.91;;;8.11;100.00
51526;BME280;37611;51.794;21.590;2023-04-07T07:39:27;99739.48;;;8.18;100.00
51526;BME280;37611;51.794;21.590;2023-04-07T07:43:30;99737.84;;;8.24;100.00
51526;BME280;37611;51.794;21.590;2023-04-07T07:47:32;99736.30;;;8.33;100.00
51526;BME280;37611;51.794;21.590;2023-04-07T07:51:34;99734.69;;;8.43;100.00
51526;BME280;37611;51.794;21.590;2023-04-07T07:55:35;99735.98;;;8.59;100.00
51526;BME280;37611;51.794;21.590;2023-04-07T07:59:37;99732.83;;;8.72;100.00
51526;BME280;37611;51.794;21.590;2023-04-07T08:03:41;99739.49;;;8.79;100.00
51526;BME280;37611;51.794;21.590;2023-04-07T08:07:42;99743.02;;;8.84;100.00
51526;BME280;37611;51.794;21.590;2023-04-07T08:11:45;99744.25;;;8.89;100.00
51526;BME280;37611;51.794;21.590;2023-04-07T08:15:48;99744.30;;;8.94;100.00
51526;BME280;37611;51.794;21.590;2023-04-07T08:19:51;99745.78;;;8.99;100.00
51526;BME280;37611;51.794;21.590;2023-04-07T08:23:53;99744.64;;;9.09;100.00
51526;BME280;37611;51.794;21.590;2023-04-07T08:27:56;99742.51;;;9.18;100.00
51526;BME280;37611;51.794;21.590;2023-04-07T08:31:57;99741.44;;;9.29;100.00
51526;BME280;37611;51.794;21.590;2023-04-07T08:35:59;99746.79;;;9.35;100.00
51526;BME280;37611;51.794;21.590;2023-04-07T08:40:02;99751.36;;;9.45;100.00
51526;BME280;37611;51.794;21.590;2023-04-07T08:44:05;99750.67;;;9.52;100.00
51526;BME280;37611;51.794;21.590;2023-04-07T08:48:15;99752.31;;;9.57;100.00
51526;BME280;37611;51.794;21.590;2023-04-07T08:52:21;99751.58;;;9.59;100.00
51526;BME280;37611;51.794;21.590;2023-04-07T08:56:24;99757.40;;;9.61;100.00
51526;BME280;37611;51.794;21.590;2023-04-07T09:00:26;99750.50;;;9.59;100.00
51526;BME280;37611;51.794;21.590;2023-04-07T09:04:29;99754.11;;;9.62;100.00
51526;BME280;37611;51.794;21.590;2023-04-07T09:08:31;99753.95;;;9.60;100.00
51526;BME280;37611;51.794;21.590;2023-04-07T09:12:33;99757.73;;;9.63;100.00
51526;BME280;37611;51.794;21.590;2023-04-07T09:16:34;99757.94;;;9.64;100.00
51526;BME280;37611;51.794;21.590;2023-04-07T09:29:19;99752.58;;;9.69;100.00
51526;BME280;37611;51.794;21.590;2023-04-07T09:33:27;99754.66;;;9.81;100.00
51526;BME280;37611;51.794;21.590;2023-04-07T09:37:29;99754.58;;;9.87;100.00
51526;BME280;37611;51.794;21.590;2023-04-07T09:41:30;99754.16;;;9.93;100.00
51526;BME280;37611;51.794;21.590;2023-04-07T09:45:32;99759.06;;;9.96;100.00
51526;BME280;37611;51.794;21.590;2023-04-07T09:49:53;99759.80;;;10.03;100.00
51526;BME280;37611;51.794;21.590;2023-04-07T09:53:55;99759.67;;;10.04;100.00
51526;BME280;37611;51.794;21.590;2023-04-07T09:57:57;99764.88;;;10.03;100.00
51526;BME280;37611;51.794;21.590;2023-04-07T10:01:59;99765.55;;;10.01;100.00
51526;BME280;37611;51.794;21.590;2023-04-07T10:06:02;99767.21;;;10.04;100.00
51526;BME280;37611;51.794;21.590;2023-04-07T10:10:05;99773.62;;;10.05;100.00
51526;BME280;37611;51.794;21.590;2023-04-07T10:14:09;99771.48;;;10.05;100.00
51526;BME280;37611;51.794;21.590;2023-04-07T10:18:12;99776.20;;;10.05;100.00
51526;BME280;37611;51.794;21.590;2023-04-07T10:22:15;99775.73;;;10.06;100.00
51526;BME280;37611;51.794;21.590;2023-04-07T10:26:22;99778.50;;;10.09;100.00
51526;BME280;37611;51.794;21.590;2023-04-07T10:30:29;99775.21;;;10.10;100.00
51526;BME280;37611;51.794;21.590;2023-04-07T10:43:09;99782.46;;;10.03;100.00
51526;BME280;37611;51.794;21.590;2023-04-07T10:47:12;99783.64;;;10.02;100.00
51526;BME280;37611;51.794;21.590;2023-04-07T10:51:15;99781.02;;;9.99;100.00
51526;BME280;37611;51.794;21.590;2023-04-07T10:55:33;99783.89;;;9.95;100.00
51526;BME280;37611;51.794;21.590;2023-04-07T10:59:37;99800.73;;;9.89;100.00
51526;BME280;37611;51.794;21.590;2023-04-07T11:03:52;99816.85;;;9.76;100.00
51526;BME280;37611;51.794;21.590;2023-04-07T11:07:54;99822.05;;;9.52;100.00
51526;BME280;37611;51.794;21.590;2023-04-07T11:11:58;99835.40;;;9.24;100.00
51526;BME280;37611;51.794;21.590;2023-04-07T11:15:59;99844.16;;;9.06;100.00
51526;BME280;37611;51.794;21.590;2023-04-07T11:20:01;99849.95;;;8.98;100.00
51526;BME280;37611;51.794;21.590;2023-04-07T11:24:03;99856.61;;;8.92;100.00
51526;BME280;37611;51.794;21.590;2023-04-07T11:28:05;99856.56;;;8.89;100.00
51526;BME280;37611;51.794;21.590;2023-04-07T11:32:07;99859.15;;;8.90;100.00
51526;BME280;37611;51.794;21.590;2023-04-07T11:36:09;99859.95;;;8.84;100.00
51526;BME280;37611;51.794;21.590;2023-04-07T11:40:11;99857.65;;;8.89;100.00
51526;BME280;37611;51.794;21.590;2023-04-07T11:44:17;99865.50;;;8.96;100.00
51526;BME280;37611;51.794;21.590;2023-04-07T11:48:28;99864.17;;;9.01;100.00
51526;BME280;37611;51.794;21.590;2023-04-07T11:52:47;99870.13;;;9.10;100.00
51526;BME280;37611;51.794;21.590;2023-04-07T11:56:49;99872.70;;;9.20;100.00
51526;BME280;37611;51.794;21.590;2023-04-07T12:00:56;99868.54;;;9.41;100.00
51526;BME280;37611;51.794;21.590;2023-04-07T12:04:58;99868.84;;;9.56;100.00
51526;BME280;37611;51.794;21.590;2023-04-07T12:09:01;99869.20;;;9.56;100.00
51526;BME280;37611;51.794;21.590;2023-04-07T12:13:03;99871.92;;;9.51;100.00
51526;BME280;37611;51.794;21.590;2023-04-07T12:17:05;99872.33;;;9.45;100.00
51526;BME280;37611;51.794;21.590;2023-04-07T12:21:08;99874.96;;;9.43;100.00
51526;BME280;37611;51.794;21.590;2023-04-07T12:25:10;99879.15;;;9.40;100.00
51526;BME280;37611;51.794;21.590;2023-04-07T12:29:11;99887.05;;;9.34;100.00
51526;BME280;37611;51.794;21.590;2023-04-07T12:33:13;99907.10;;;9.20;100.00
51526;BME280;37611;51.794;21.590;2023-04-07T12:37:15;99915.58;;;8.97;100.00
51526;BME280;37611;51.794;21.590;2023-04-07T12:41:17;99915.91;;;8.71;100.00
51526;BME280;37611;51.794;21.590;2023-04-07T12:45:19;99920.09;;;8.51;100.00
51526;BME280;37611;51.794;21.590;2023-04-07T12:49:21;99927.55;;;8.41;100.00
51526;BME280;37611;51.794;21.590;2023-04-07T12:53:22;99936.61;;;8.26;100.00
51526;BME280;37611;51.794;21.590;2023-04-07T12:57:24;99946.56;;;8.06;100.00
51526;BME280;37611;51.794;21.590;2023-04-07T13:01:26;99957.65;;;7.93;100.00
51526;BME280;37611;51.794;21.590;2023-04-07T13:05:28;99959.94;;;7.79;100.00
51526;BME280;37611;51.794;21.590;2023-04-07T13:09:30;99959.05;;;7.73;100.00
51526;BME280;37611;51.794;21.590;2023-04-07T13:13:32;99965.63;;;7.74;100.00
51526;BME280;37611;51.794;21.590;2023-04-07T13:17:34;99966.66;;;7.79;100.00
51526;BME280;37611;51.794;21.590;2023-04-07T13:21:36;99969.09;;;7.83;100.00
51526;BME280;37611;51.794;21.590;2023-04-07T13:25:38;99976.03;;;7.82;100.00
51526;BME280;37611;51.794;21.590;2023-04-07T13:29:40;99971.19;;;7.88;100.00
51526;BME280;37611;51.794;21.590;2023-04-07T13:33:42;99973.51;;;7.95;100.00
51526;BME280;37611;51.794;21.590;2023-04-07T13:37:44;99977.45;;;8.03;100.00
51526;BME280;37611;51.794;21.590;2023-04-07T13:41:45;99977.73;;;8.10;100.00
51526;BME280;37611;51.794;21.590;2023-04-07T13:45:48;99977.41;;;8.22;100.00
51526;BME280;37611;51.794;21.590;2023-04-07T13:49:49;99970.96;;;8.29;100.00
51526;BME280;37611;51.794;21.590;2023-04-07T13:53:52;99970.24;;;8.38;100.00
51526;BME280;37611;51.794;21.590;2023-04-07T13:57:54;99975.77;;;8.44;100.00
51526;BME280;37611;51.794;21.590;2023-04-07T14:01:56;99977.02;;;8.42;100.00
51526;BME280;37611;51.794;21.590;2023-04-07T14:05:57;99979.09;;;8.44;100.00
51526;BME280;37611;51.794;21.590;2023-04-07T14:10:01;99978.35;;;8.44;100.00
51526;BME280;37611;51.794;21.590;2023-04-07T14:14:03;99980.96;;;8.44;100.00
51526;BME280;37611;51.794;21.590;2023-04-07T14:18:06;99981.72;;;8.46;100.00
51526;BME280;37611;51.794;21.590;2023-04-07T14:22:08;99982.56;;;8.52;100.00
51526;BME280;37611;51.794;21.590;2023-04-07T14:26:10;99980.55;;;8.57;100.00
51526;BME280;37611;51.794;21.590;2023-04-07T14:30:12;99983.92;;;8.68;100.00
51526;BME280;37611;51.794;21.590;2023-04-07T14:34:14;99989.28;;;8.78;100.00
51526;BME280;37611;51.794;21.590;2023-04-07T14:38:16;99994.31;;;8.82;100.00
51526;BME280;37611;51.794;21.590;2023-04-07T14:42:18;99995.65;;;8.84;100.00
51526;BME280;37611;51.794;21.590;2023-04-07T14:46:24;99994.87;;;8.79;100.00
51526;BME280;37611;51.794;21.590;2023-04-07T14:50:26;99995.89;;;8.80;100.00
51526;BME280;37611;51.794;21.590;2023-04-07T14:54:29;99999.73;;;8.76;100.00
51526;BME280;37611;51.794;21.590;2023-04-07T14:58:31;100007.84;;;8.75;100.00
51526;BME280;37611;51.794;21.590;2023-04-07T15:02:32;100012.12;;;8.69;100.00
51526;BME280;37611;51.794;21.590;2023-04-07T15:06:34;100012.45;;;8.63;100.00
51526;BME280;37611;51.794;21.590;2023-04-07T15:10:36;100015.10;;;8.61;100.00
51526;BME280;37611;51.794;21.590;2023-04-07T15:14:39;100020.78;;;8.59;100.00
51526;BME280;37611;51.794;21.590;2023-04-07T15:18:42;100021.38;;;8.65;100.00
51526;BME280;37611;51.794;21.590;2023-04-07T15:22:45;100020.69;;;8.68;100.00
51526;BME280;37611;51.794;21.590;2023-04-07T15:26:47;100027.48;;;8.74;100.00
51526;BME280;37611;51.794;21.590;2023-04-07T15:30:49;100029.83;;;8.79;100.00
51526;BME280;37611;51.794;21.590;2023-04-07T15:34:51;100031.50;;;8.86;100.00
51526;BME280;37611;51.794;21.590;2023-04-07T15:38:53;100034.58;;;8.84;100.00
51526;BME280;37611;51.794;21.590;2023-04-07T15:42:55;100053.88;;;8.70;100.00
51526;BME280;37611;51.794;21.590;2023-04-07T15:46:56;100058.30;;;8.34;100.00
51526;BME280;37611;51.794;21.590;2023-04-07T15:50:58;100065.62;;;8.00;100.00
51526;BME280;37611;51.794;21.590;2023-04-07T15:55:00;100069.40;;;7.77;100.00
51526;BME280;37611;51.794;21.590;2023-04-07T15:59:01;100068.10;;;7.61;100.00
51526;BME280;37611;51.794;21.590;2023-04-07T16:03:03;100069.80;;;7.54;100.00
51526;BME280;37611;51.794;21.590;2023-04-07T16:07:05;100068.33;;;7.49;100.00
51526;BME280;37611;51.794;21.590;2023-04-07T16:11:07;100073.12;;;7.44;100.00
51526;BME280;37611;51.794;21.590;2023-04-07T16:15:08;100073.77;;;7.40;100.00
51526;BME280;37611;51.794;21.590;2023-04-07T16:19:11;100078.34;;;7.40;100.00
51526;BME280;37611;51.794;21.590;2023-04-07T16:23:14;100082.80;;;7.39;100.00
51526;BME280;37611;51.794;21.590;2023-04-07T16:27:16;100091.79;;;7.37;100.00
51526;BME280;37611;51.794;21.590;2023-04-07T16:31:18;100098.09;;;7.28;100.00
51526;BME280;37611;51.794;21.590;2023-04-07T16:35:19;100111.63;;;7.21;100.00
51526;BME280;37611;51.794;21.590;2023-04-07T16:39:21;100117.39;;;7.12;100.00
51526;BME280;37611;51.794;21.590;2023-04-07T16:43:23;100124.67;;;7.08;100.00
51526;BME280;37611;51.794;21.590;2023-04-07T16:47:28;100131.02;;;7.03;100.00
51526;BME280;37611;51.794;21.590;2023-04-07T16:51:30;100132.60;;;6.97;100.00
51526;BME280;37611;51.794;21.590;2023-04-07T16:55:35;100139.63;;;6.90;100.00
51526;BME280;37611;51.794;21.590;2023-04-07T16:59:37;100150.32;;;6.84;100.00
51526;BME280;37611;51.794;21.590;2023-04-07T17:03:39;100156.17;;;6.79;100.00
51526;BME280;37611;51.794;21.590;2023-04-07T17:07:41;100166.06;;;6.79;100.00
51526;BME280;37611;51.794;21.590;2023-04-07T17:11:42;100170.36;;;6.75;100.00
51526;BME280;37611;51.794;21.590;2023-04-07T17:15:44;100174.72;;;6.71;100.00
51526;BME280;37611;51.794;21.590;2023-04-07T17:19:46;100180.29;;;6.69;100.00
51526;BME280;37611;51.794;21.590;2023-04-07T17:23:47;100186.14;;;6.67;100.00
51526;BME280;37611;51.794;21.590;2023-04-07T17:27:49;100191.04;;;6.67;100.00
51526;BME280;37611;51.794;21.590;2023-04-07T17:31:51;100196.67;;;6.66;100.00
51526;BME280;37611;51.794;21.590;2023-04-07T17:35:52;100204.48;;;6.62;100.00
51526;BME280;37611;51.794;21.590;2023-04-07T17:39:54;100206.30;;;6.61;100.00
51526;BME280;37611;51.794;21.590;2023-04-07T17:43:56;100218.77;;;6.59;100.00
51526;BME280;37611;51.794;21.590;2023-04-07T17:47:59;100225.17;;;6.58;100.00
51526;BME280;37611;51.794;21.590;2023-04-07T17:52:04;100235.33;;;6.57;100.00
51526;BME280;37611;51.794;21.590;2023-04-07T17:56:05;100244.14;;;6.53;100.00
51526;BME280;37611;51.794;21.590;2023-04-07T18:00:07;100252.40;;;6.50;100.00
51526;BME280;37611;51.794;21.590;2023-04-07T18:04:09;100259.73;;;6.46;100.00
51526;BME280;37611;51.794;21.590;2023-04-07T18:08:11;100266.66;;;6.39;100.00
51526;BME280;37611;51.794;21.590;2023-04-07T18:12:13;100270.73;;;6.33;100.00
51526;BME280;37611;51.794;21.590;2023-04-07T18:16:15;100279.84;;;6.26;100.00
51526;BME280;37611;51.794;21.590;2023-04-07T18:20:20;100291.02;;;6.21;100.00
51526;BME280;37611;51.794;21.590;2023-04-07T18:24:21;100297.91;;;6.12;100.00
51526;BME280;37611;51.794;21.590;2023-04-07T18:28:23;100307.65;;;6.06;100.00
51526;BME280;37611;51.794;21.590;2023-04-07T18:32:25;100310.50;;;5.98;100.00
51526;BME280;37611;51.794;21.590;2023-04-07T18:36:27;100320.98;;;5.92;100.00
51526;BME280;37611;51.794;21.590;2023-04-07T18:40:29;100329.41;;;5.86;100.00
51526;BME280;37611;51.794;21.590;2023-04-07T18:44:33;100333.52;;;5.82;100.00
51526;BME280;37611;51.794;21.590;2023-04-07T18:48:35;100340.55;;;5.77;100.00
51526;BME280;37611;51.794;21.590;2023-04-07T18:52:37;100345.10;;;5.72;100.00
51526;BME280;37611;51.794;21.590;2023-04-07T18:56:38;100348.14;;;5.70;100.00
51526;BME280;37611;51.794;21.590;2023-04-07T19:00:41;100359.99;;;5.65;100.00
51526;BME280;37611;51.794;21.590;2023-04-07T19:04:42;100359.06;;;5.58;100.00
51526;BME280;37611;51.794;21.590;2023-04-07T19:08:45;100356.38;;;5.50;100.00
51526;BME280;37611;51.794;21.590;2023-04-07T19:12:46;100361.34;;;5.44;100.00
51526;BME280;37611;51.794;21.590;2023-04-07T19:16:48;100360.97;;;5.37;100.00
51526;BME280;37611;51.794;21.590;2023-04-07T19:20:50;100363.16;;;5.31;100.00
51526;BME280;37611;51.794;21.590;2023-04-07T19:24:52;100369.27;;;5.23;100.00
51526;BME280;37611;51.794;21.590;2023-04-07T19:28:55;100376.91;;;5.15;100.00
51526;BME280;37611;51.794;21.590;2023-04-07T19:32:57;100379.80;;;5.09;100.00
51526;BME280;37611;51.794;21.590;2023-04-07T19:36:58;100384.73;;;5.03;100.00
51526;BME280;37611;51.794;21.590;2023-04-07T19:41:00;100387.58;;;4.97;100.00
51526;BME280;37611;51.794;21.590;2023-04-07T19:45:05;100388.21;;;4.93;100.00
51526;BME280;37611;51.794;21.590;2023-04-07T19:49:09;100389.47;;;4.95;100.00
51526;BME280;37611;51.794;21.590;2023-04-07T19:53:11;100400.95;;;4.97;100.00
51526;BME280;37611;51.794;21.590;2023-04-07T19:57:16;100401.35;;;4.99;100.00
51526;BME280;37611;51.794;21.590;2023-04-07T20:01:18;100404.27;;;4.99;100.00
51526;BME280;37611;51.794;21.590;2023-04-07T20:05:20;100415.27;;;5.01;100.00
51526;BME280;37611;51.794;21.590;2023-04-07T20:09:21;100419.27;;;5.01;100.00
51526;BME280;37611;51.794;21.590;2023-04-07T20:13:26;100419.46;;;5.00;100.00
51526;BME280;37611;51.794;21.590;2023-04-07T20:17:28;100434.48;;;5.02;100.00
51526;BME280;37611;51.794;21.590;2023-04-07T20:21:34;100432.81;;;5.01;100.00
51526;BME280;37611;51.794;21.590;2023-04-07T20:25:36;100440.88;;;4.99;100.00
51526;BME280;37611;51.794;21.590;2023-04-07T20:29:38;100443.83;;;4.97;100.00
51526;BME280;37611;51.794;21.590;2023-04-07T20:33:40;100446.88;;;4.98;100.00
51526;BME280;37611;51.794;21.590;2023-04-07T20:37:41;100444.08;;;4.96;100.00
51526;BME280;37611;51.794;21.590;2023-04-07T20:41:44;100448.80;;;4.92;100.00
51526;BME280;37611;51.794;21.590;2023-04-07T20:45:46;100456.77;;;4.90;100.00
51526;BME280;37611;51.794;21.590;2023-04-07T20:49:49;100454.65;;;4.90;100.00
51526;BME280;37611;51.794;21.590;2023-04-07T20:53:51;100454.64;;;4.88;100.00
51526;BME280;37611;51.794;21.590;2023-04-07T20:57:53;100455.30;;;4.86;100.00
51526;BME280;37611;51.794;21.590;2023-04-07T21:01:55;100457.85;;;4.84;100.00
51526;BME280;37611;51.794;21.590;2023-04-07T21:05:57;100460.84;;;4.86;100.00
51526;BME280;37611;51.794;21.590;2023-04-07T21:09:59;100466.37;;;4.86;100.00
51526;BME280;37611;51.794;21.590;2023-04-07T21:14:00;100466.77;;;4.86;100.00
51526;BME280;37611;51.794;21.590;2023-04-07T21:18:02;100468.52;;;4.86;100.00
51526;BME280;37611;51.794;21.590;2023-04-07T21:22:04;100471.77;;;4.86;100.00
51526;BME280;37611;51.794;21.590;2023-04-07T21:26:06;100472.07;;;4.84;100.00
51526;BME280;37611;51.794;21.590;2023-04-07T21:30:08;100473.96;;;4.85;100.00
51526;BME280;37611;51.794;21.590;2023-04-07T21:34:10;100479.48;;;4.82;100.00
51526;BME280;37611;51.794;21.590;2023-04-07T21:38:12;100478.64;;;4.82;100.00
51526;BME280;37611;51.794;21.590;2023-04-07T21:42:13;100479.46;;;4.83;100.00
51526;BME280;37611;51.794;21.590;2023-04-07T21:46:15;100480.02;;;4.82;100.00
51526;BME280;37611;51.794;21.590;2023-04-07T21:50:18;100487.88;;;4.82;100.00
51526;BME280;37611;51.794;21.590;2023-04-07T21:54:19;100487.48;;;4.82;100.00
51526;BME280;37611;51.794;21.590;2023-04-07T21:58:21;100491.01;;;4.82;100.00
51526;BME280;37611;51.794;21.590;2023-04-07T22:02:23;100493.25;;;4.82;100.00
51526;BME280;37611;51.794;21.590;2023-04-07T22:06:25;100492.08;;;4.81;100.00
51526;BME280;37611;51.794;21.590;2023-04-07T22:10:27;100493.98;;;4.81;100.00
51526;BME280;37611;51.794;21.590;2023-04-07T22:14:28;100494.52;;;4.81;100.00
51526;BME280;37611;51.794;21.590;2023-04-07T22:18:30;100501.80;;;4.81;100.00
51526;BME280;37611;51.794;21.590;2023-04-07T22:22:32;100500.07;;;4.81;100.00
51526;BME280;37611;51.794;21.590;2023-04-07T22:26:34;100499.17;;;4.82;100.00
51526;BME280;37611;51.794;21.590;2023-04-07T22:30:35;100496.98;;;4.83;100.00
51526;BME280;37611;51.794;21.590;2023-04-07T22:34:37;100500.05;;;4.81;100.00
51526;BME280;37611;51.794;21.590;2023-04-07T22:38:39;100498.36;;;4.81;100.00
51526;BME280;37611;51.794;21.590;2023-04-07T22:42:40;100503.21;;;4.78;100.00
51526;BME280;37611;51.794;21.590;2023-04-07T22:46:42;100507.45;;;4.77;100.00
51526;BME280;37611;51.794;21.590;2023-04-07T22:50:44;100505.23;;;4.77;100.00
51526;BME280;37611;51.794;21.590;2023-04-07T22:54:45;100504.65;;;4.80;100.00
51526;BME280;37611;51.794;21.590;2023-04-07T22:58:47;100511.66;;;4.79;100.00
51526;BME280;37611;51.794;21.590;2023-04-07T23:02:49;100509.95;;;4.78;100.00
51526;BME280;37611;51.794;21.590;2023-04-07T23:06:51;100513.85;;;4.77;100.00
51526;BME280;37611;51.794;21.590;2023-04-07T23:10:53;100518.27;;;4.76;100.00
51526;BME280;37611;51.794;21.590;2023-04-07T23:14:55;100515.67;;;4.74;100.00
51526;BME280;37611;51.794;21.590;2023-04-07T23:18:56;100513.34;;;4.72;100.00
51526;BME280;37611;51.794;21.590;2023-04-07T23:22:58;100515.73;;;4.67;100.00
51526;BME280;37611;51.794;21.590;2023-04-07T23:27:00;100514.73;;;4.64;100.00
51526;BME280;37611;51.794;21.590;2023-04-07T23:31:02;100514.45;;;4.60;100.00
51526;BME280;37611;51.794;21.590;2023-04-07T23:35:04;100514.55;;;4.56;100.00
51526;BME280;37611;51.794;21.590;2023-04-07T23:39:07;100517.57;;;4.50;100.00
51526;BME280;37611;51.794;21.590;2023-04-07T23:43:09;100515.41;;;4.40;100.00
51526;BME280;37611;51.794;21.590;2023-04-07T23:47:11;100517.81;;;4.33;100.00
51526;BME280;37611;51.794;21.590;2023-04-07T23:51:12;100522.10;;;4.28;100.00
51526;BME280;37611;51.794;21.590;2023-04-07T23:55:15;100525.58;;;4.23;100.00
51526;BME280;37611;51.794;21.590;2023-04-07T23:59:16;100528.17;;;4.15;100.00
